Time;durP1;ratioP1;P1;durP2;ratioP2;P2;SDS_P1;SDS_P2;PMS_P1;PMS_P2;Temp;Humidity;BMP_temperature;BMP_pressure;BME280_temperature;BME280_humidity;BME280_pressure;Samples;Min_cycle;Max_cycle;Signal;HPM_P1;HPM_P2
2022/03/31 00:00:58;;;;;;;27.40;21.90;;;4.40;99.90;;;;;;5094183;28;20227;-75
2022/03/31 00:03:25;;;;;;;25.33;21.47;;;4.40;99.90;;;;;;5095522;28;20226;-75
2022/03/31 00:05:51;;;;;;;25.40;20.43;;;4.50;99.90;;;;;;5095513;28;20204;-76
2022/03/31 00:08:19;;;;;;;26.37;20.80;;;4.50;99.90;;;;;;5097126;28;20601;-75
2022/03/31 00:10:47;;;;;;;24.23;19.67;;;4.50;99.90;;;;;;5097881;28;20218;-76
2022/03/31 00:13:18;;;;;;;24.83;20.53;;;4.50;99.90;;;;;;5097252;28;20200;-76
2022/03/31 00:15:45;;;;;;;25.47;20.50;;;4.50;99.90;;;;;;5096703;28;20195;-76
2022/03/31 00:18:13;;;;;;;26.50;20.50;;;4.50;99.90;;;;;;5096113;28;20199;-75
2022/03/31 00:20:40;;;;;;;23.97;20.57;;;4.40;99.90;;;;;;5096445;28;20224;-75
2022/03/31 00:23:09;;;;;;;26.33;21.23;;;4.50;99.90;;;;;;5095359;28;20287;-76
2022/03/31 00:25:36;;;;;;;24.40;20.67;;;4.50;99.90;;;;;;5096179;28;20203;-76
2022/03/31 00:28:04;;;;;;;24.00;20.00;;;4.40;99.90;;;;;;5096694;28;20253;-75
2022/03/31 00:30:32;;;;;;;26.10;20.13;;;4.50;99.90;;;;;;5095884;28;20310;-75
2022/03/31 00:32:59;;;;;;;23.70;19.90;;;4.50;99.90;;;;;;5095264;28;20256;-75
2022/03/31 00:35:26;;;;;;;27.37;21.27;;;4.40;99.90;;;;;;5094201;28;20199;-75
2022/03/31 00:37:53;;;;;;;26.60;21.27;;;4.50;99.90;;;;;;5093522;28;20533;-75
2022/03/31 00:40:21;;;;;;;25.93;20.77;;;4.40;99.90;;;;;;5093666;28;20274;-75
2022/03/31 00:42:49;;;;;;;27.03;20.33;;;4.50;99.90;;;;;;5093370;28;20655;-75
2022/03/31 00:45:18;;;;;;;25.73;21.23;;;4.50;99.90;;;;;;5094116;28;20232;-75
2022/03/31 00:47:46;;;;;;;24.03;20.57;;;4.40;99.90;;;;;;5093368;28;20210;-75
2022/03/31 00:50:14;;;;;;;24.27;20.50;;;4.40;99.90;;;;;;5093420;28;20199;-74
2022/03/31 00:52:41;;;;;;;23.77;20.03;;;4.40;99.90;;;;;;5093537;28;20556;-75
2022/03/31 00:55:10;;;;;;;24.67;20.30;;;4.40;99.90;;;;;;5093328;28;20659;-74
2022/03/31 00:57:37;;;;;;;25.13;20.43;;;4.40;99.90;;;;;;5093653;28;20256;-74
2022/03/31 01:00:07;;;;;;;28.83;21.20;;;4.40;99.90;;;;;;5093142;28;20207;-74
2022/03/31 01:02:35;;;;;;;26.40;20.93;;;4.40;99.90;;;;;;5093583;28;20207;-73
2022/03/31 01:05:04;;;;;;;26.87;21.70;;;4.40;99.90;;;;;;5093487;28;20245;-74
2022/03/31 01:07:35;;;;;;;26.43;20.83;;;4.40;99.90;;;;;;5093176;28;20196;-75
2022/03/31 01:10:01;;;;;;;31.97;22.47;;;4.40;99.90;;;;;;5093413;28;20654;-74
2022/03/31 01:12:28;;;;;;;28.27;21.37;;;4.30;99.90;;;;;;5094911;28;20532;-74
2022/03/31 01:15:09;;;;;;;27.00;21.40;;;4.30;99.90;;;;;;5097850;28;20192;-74
2022/03/31 01:17:36;;;;;;;29.47;21.47;;;4.40;99.90;;;;;;5099820;28;20195;-74
2022/03/31 01:20:08;;;;;;;26.43;20.97;;;4.30;99.90;;;;;;5100240;28;20222;-74
2022/03/31 01:22:35;;;;;;;29.37;21.53;;;4.30;99.90;;;;;;5102580;28;20249;-77
2022/03/31 01:25:05;;;;;;;26.53;21.97;;;4.30;99.90;;;;;;5102909;28;20199;-75
2022/03/31 01:27:33;;;;;;;28.97;22.77;;;4.30;99.90;;;;;;5100058;28;20200;-74
2022/03/31 01:29:59;;;;;;;29.50;22.30;;;4.30;99.90;;;;;;5098756;28;20204;-74
2022/03/31 01:32:26;;;;;;;29.43;21.53;;;4.40;99.90;;;;;;5098350;28;20195;-74
2022/03/31 01:34:53;;;;;;;28.50;22.13;;;4.40;99.90;;;;;;5097860;28;20207;-74
2022/03/31 01:37:19;;;;;;;29.43;23.23;;;4.30;99.90;;;;;;5097814;28;20210;-73
2022/03/31 01:39:46;;;;;;;28.37;22.73;;;4.30;99.90;;;;;;5097764;28;20215;-74
2022/03/31 01:42:14;;;;;;;31.67;23.37;;;4.30;99.90;;;;;;5098271;28;20227;-73
2022/03/31 01:44:40;;;;;;;29.37;22.00;;;4.30;99.90;;;;;;5097206;28;20246;-75
2022/03/31 01:47:08;;;;;;;30.33;23.20;;;4.30;99.90;;;;;;5096644;28;20721;-75
2022/03/31 01:49:37;;;;;;;27.87;20.80;;;4.30;99.90;;;;;;5096546;28;20210;-75
2022/03/31 01:52:04;;;;;;;30.90;22.27;;;4.20;99.90;;;;;;5096547;28;20211;-75
2022/03/31 01:54:31;;;;;;;29.40;22.60;;;4.30;99.90;;;;;;5096466;28;20203;-74
2022/03/31 01:56:58;;;;;;;28.90;21.90;;;4.20;99.90;;;;;;5096567;28;20224;-74
2022/03/31 01:59:32;;;;;;;30.50;22.93;;;4.20;99.90;;;;;;5096426;28;20650;-74
2022/03/31 02:01:59;;;;;;;28.57;21.40;;;4.20;99.90;;;;;;5096783;28;20218;-74
2022/03/31 02:04:26;;;;;;;30.67;22.40;;;4.10;99.90;;;;;;5096057;28;20655;-74
2022/03/31 02:06:52;;;;;;;31.33;23.27;;;4.10;99.90;;;;;;5096506;28;20207;-74
2022/03/31 02:09:19;;;;;;;33.70;23.40;;;4.10;99.90;;;;;;5096281;28;20559;-74
2022/03/31 02:11:46;;;;;;;30.03;22.83;;;4.10;99.90;;;;;;5096199;28;20225;-74
2022/03/31 02:14:13;;;;;;;29.73;22.33;;;4.00;99.90;;;;;;5096012;28;20621;-75
2022/03/31 02:16:41;;;;;;;32.90;24.87;;;4.10;99.90;;;;;;5095998;28;20193;-75
2022/03/31 02:19:08;;;;;;;33.40;24.23;;;4.10;99.90;;;;;;5095719;28;20200;-75
2022/03/31 02:21:35;;;;;;;31.50;23.07;;;4.20;99.90;;;;;;5095752;28;20598;-75
2022/03/31 02:24:02;;;;;;;32.77;24.03;;;4.10;99.90;;;;;;5094576;28;20711;-75
2022/03/31 02:26:28;;;;;;;31.90;24.20;;;4.20;99.90;;;;;;5096131;28;20210;-75
2022/03/31 02:28:55;;;;;;;30.47;22.97;;;4.20;99.90;;;;;;5095940;28;20200;-75
2022/03/31 02:31:22;;;;;;;34.27;24.00;;;4.10;99.90;;;;;;5096460;28;20263;-75
2022/03/31 02:33:50;;;;;;;31.27;23.40;;;4.10;99.90;;;;;;5097359;28;20654;-74
2022/03/31 02:36:16;;;;;;;31.80;23.37;;;4.00;99.90;;;;;;5096037;28;20202;-75
2022/03/31 02:38:43;;;;;;;31.47;22.50;;;4.10;99.90;;;;;;5095971;28;20225;-75
2022/03/31 02:41:09;;;;;;;32.00;24.07;;;4.20;99.90;;;;;;5096026;28;20224;-75
2022/03/31 02:43:36;;;;;;;31.07;23.27;;;4.10;99.90;;;;;;5096035;28;20208;-75
2022/03/31 02:46:03;;;;;;;32.43;23.90;;;4.20;99.90;;;;;;5096057;28;20199;-75
2022/03/31 02:48:30;;;;;;;33.37;24.57;;;4.10;99.90;;;;;;5095973;28;20203;-75
2022/03/31 02:50:58;;;;;;;31.93;24.03;;;4.10;99.90;;;;;;5095910;28;20199;-75
2022/03/31 02:56:09;;;;;;;34.87;23.97;;;4.10;99.90;;;;;;5095751;28;20648;-75
2022/03/31 02:58:35;;;;;;;31.87;24.57;;;4.00;99.90;;;;;;5095531;28;20656;-74
2022/03/31 03:01:02;;;;;;;37.73;25.20;;;4.10;99.90;;;;;;5095605;28;20256;-75
2022/03/31 03:03:30;;;;;;;35.50;25.63;;;4.10;99.90;;;;;;5095336;28;20654;-76
2022/03/31 03:05:58;;;;;;;36.73;24.93;;;4.10;99.90;;;;;;5095207;28;20225;-75
2022/03/31 03:08:27;;;;;;;38.10;26.37;;;4.10;99.90;;;;;;5095242;28;20199;-75
2022/03/31 03:10:53;;;;;;;34.80;25.37;;;4.10;99.90;;;;;;5094952;28;20234;-75
2022/03/31 03:13:20;;;;;;;36.20;25.77;;;4.10;99.90;;;;;;5094967;28;20537;-75
2022/03/31 03:15:48;;;;;;;37.67;26.77;;;4.10;99.90;;;;;;5094694;28;20790;-75
2022/03/31 03:18:16;;;;;;;35.07;25.67;;;4.10;99.90;;;;;;5094966;28;20199;-75
2022/03/31 03:20:43;;;;;;;37.17;26.77;;;4.20;99.90;;;;;;5094874;28;20666;-75
2022/03/31 03:23:11;;;;;;;37.07;26.40;;;4.20;99.90;;;;;;5094365;28;20292;-75
2022/03/31 03:25:37;;;;;;;34.50;26.20;;;4.10;99.90;;;;;;5094706;28;20268;-75
2022/03/31 03:28:05;;;;;;;35.23;25.97;;;4.10;99.90;;;;;;5094434;28;20202;-75
2022/03/31 03:30:31;;;;;;;33.53;25.13;;;4.10;99.90;;;;;;5094630;28;20199;-74
2022/03/31 03:32:58;;;;;;;36.27;26.37;;;4.10;99.90;;;;;;5094545;28;20203;-75
2022/03/31 03:35:24;;;;;;;37.27;25.87;;;4.10;99.90;;;;;;5094269;28;20222;-75
2022/03/31 03:37:51;;;;;;;37.27;25.27;;;4.20;99.90;;;;;;5094303;28;20663;-75
2022/03/31 03:40:19;;;;;;;38.90;26.97;;;4.20;99.90;;;;;;5094393;28;20203;-74
2022/03/31 03:42:46;;;;;;;35.40;25.87;;;4.20;99.90;;;;;;5094232;28;20231;-75
2022/03/31 03:45:13;;;;;;;38.30;27.07;;;4.10;99.90;;;;;;5094556;28;20205;-75
2022/03/31 03:47:40;;;;;;;37.53;27.03;;;4.10;99.90;;;;;;5094244;28;20670;-75
2022/03/31 03:50:07;;;;;;;40.67;27.20;;;4.00;99.90;;;;;;5094251;28;20203;-75
2022/03/31 03:52:34;;;;;;;39.60;27.07;;;3.90;99.90;;;;;;5094240;28;20195;-75
2022/03/31 03:55:01;;;;;;;37.73;27.37;;;4.00;99.90;;;;;;5094348;28;20202;-74
2022/03/31 03:57:29;;;;;;;39.63;28.00;;;3.90;99.90;;;;;;5094446;28;20194;-75
2022/03/31 03:59:56;;;;;;;38.43;27.57;;;3.90;99.90;;;;;;5094639;28;20606;-75
2022/03/31 04:02:22;;;;;;;41.30;29.13;;;4.00;99.90;;;;;;5096623;28;20582;-75
2022/03/31 04:04:49;;;;;;;44.17;29.63;;;4.00;99.90;;;;;;5102193;28;20384;-76
2022/03/31 04:07:16;;;;;;;38.87;27.67;;;4.00;99.90;;;;;;5101676;28;20204;-75
2022/03/31 04:09:42;;;;;;;41.77;28.47;;;4.00;99.90;;;;;;5097287;28;20196;-75
2022/03/31 04:12:09;;;;;;;45.73;30.10;;;4.00;99.90;;;;;;5095083;28;20260;-74
2022/03/31 04:14:37;;;;;;;43.80;28.60;;;4.00;99.90;;;;;;5094318;28;20203;-76
2022/03/31 04:17:04;;;;;;;45.30;30.20;;;4.00;99.90;;;;;;5094440;28;20203;-75
2022/03/31 04:19:31;;;;;;;48.03;30.03;;;4.00;99.90;;;;;;5094539;28;20196;-75
2022/03/31 04:21:58;;;;;;;41.93;28.70;;;4.00;99.90;;;;;;5094327;28;20602;-75
2022/03/31 04:24:24;;;;;;;40.97;29.67;;;4.00;99.90;;;;;;5095771;28;20199;-75
2022/03/31 04:26:51;;;;;;;44.27;29.83;;;3.90;99.90;;;;;;5095726;28;20263;-74
2022/03/31 04:29:17;;;;;;;44.70;29.93;;;3.90;99.90;;;;;;5096626;28;20196;-75
2022/03/31 04:31:45;;;;;;;44.97;30.03;;;3.90;99.90;;;;;;5095583;28;20203;-75
2022/03/31 04:34:15;;;;;;;45.20;30.37;;;3.90;99.90;;;;;;5095166;28;20209;-75
2022/03/31 04:36:42;;;;;;;46.80;30.80;;;3.90;99.90;;;;;;5094227;28;20207;-74
2022/03/31 04:39:09;;;;;;;44.80;30.03;;;3.90;99.90;;;;;;5094512;28;20199;-75
2022/03/31 04:41:36;;;;;;;50.50;31.20;;;4.00;99.90;;;;;;5094185;28;20761;-79
2022/03/31 04:44:03;;;;;;;48.40;30.70;;;4.00;99.90;;;;;;5094211;28;20698;-75
2022/03/31 04:46:29;;;;;;;50.47;29.37;;;4.10;99.90;;;;;;5093428;28;20571;-76
2022/03/31 04:48:58;;;;;;;46.27;30.53;;;4.00;99.90;;;;;;5093823;28;20197;-76
2022/03/31 04:51:24;;;;;;;46.80;31.23;;;4.00;99.90;;;;;;5093489;28;20203;-75
2022/03/31 04:53:51;;;;;;;46.73;30.13;;;4.00;99.90;;;;;;5089211;28;20223;-76
2022/03/31 04:56:17;;;;;;;49.53;30.53;;;4.00;99.90;;;;;;5092629;28;20239;-76
2022/03/31 04:58:45;;;;;;;47.10;30.47;;;4.00;99.90;;;;;;5095027;28;20684;-75
2022/03/31 05:01:12;;;;;;;46.93;31.37;;;4.00;99.90;;;;;;5095406;28;20203;-76
2022/03/31 05:03:38;;;;;;;51.60;31.70;;;4.10;99.90;;;;;;5095403;28;20629;-76
2022/03/31 05:06:07;;;;;;;46.50;30.63;;;4.10;99.90;;;;;;5102800;28;20203;-77
2022/03/31 05:08:34;;;;;;;54.17;31.63;;;4.10;99.90;;;;;;5104197;28;20195;-76
2022/03/31 05:11:01;;;;;;;50.10;31.67;;;4.20;99.90;;;;;;5104966;28;20269;-77
2022/03/31 05:13:27;;;;;;;48.27;29.80;;;4.20;99.90;;;;;;5104238;28;20256;-77
2022/03/31 05:15:54;;;;;;;48.67;29.90;;;4.20;99.90;;;;;;5103826;28;20218;-77
2022/03/31 05:18:21;;;;;;;48.17;30.10;;;4.10;99.90;;;;;;5105499;28;20264;-77
2022/03/31 05:20:48;;;;;;;46.17;30.43;;;4.10;99.90;;;;;;5101172;28;20236;-76
2022/03/31 05:23:16;;;;;;;46.90;30.83;;;4.20;99.90;;;;;;5098012;28;20227;-76
2022/03/31 05:25:43;;;;;;;46.07;29.57;;;4.20;99.90;;;;;;5097663;28;20203;-77
2022/03/31 05:28:11;;;;;;;48.43;30.50;;;4.20;99.90;;;;;;5097087;28;20200;-77
2022/03/31 05:30:37;;;;;;;45.27;29.33;;;4.20;99.90;;;;;;5097877;28;20655;-76
2022/03/31 05:33:04;;;;;;;42.00;28.63;;;4.30;99.90;;;;;;5096993;28;20200;-77
2022/03/31 05:35:31;;;;;;;44.20;29.10;;;4.30;99.90;;;;;;5096810;28;20203;-76
2022/03/31 05:37:58;;;;;;;47.10;28.70;;;4.30;99.90;;;;;;5094850;28;20233;-76
2022/03/31 05:40:26;;;;;;;44.90;28.93;;;4.40;99.90;;;;;;5096205;28;20206;-76
2022/03/31 05:42:55;;;;;;;42.67;28.10;;;4.40;99.90;;;;;;5095459;28;20241;-76
2022/03/31 05:45:22;;;;;;;46.93;29.87;;;4.40;99.90;;;;;;5095334;28;20203;-76
2022/03/31 05:47:49;;;;;;;40.60;27.07;;;4.40;99.90;;;;;;5096616;28;20200;-76
2022/03/31 05:50:16;;;;;;;45.27;28.90;;;4.40;99.90;;;;;;5094358;28;20544;-76
2022/03/31 05:52:43;;;;;;;43.23;27.73;;;4.40;99.90;;;;;;5094922;28;20545;-76
2022/03/31 05:55:12;;;;;;;42.00;27.57;;;4.40;99.90;;;;;;5095256;28;20291;-76
2022/03/31 05:57:41;;;;;;;41.23;27.53;;;4.40;99.90;;;;;;5095421;28;20196;-76
2022/03/31 06:00:11;;;;;;;40.17;27.20;;;4.50;99.90;;;;;;5096558;28;20597;-75
2022/03/31 06:02:38;;;;;;;41.97;26.80;;;4.50;99.90;;;;;;5098085;28;20212;-75
2022/03/31 06:05:05;;;;;;;41.43;26.77;;;4.50;99.90;;;;;;5097316;28;20609;-75
2022/03/31 06:07:32;;;;;;;40.77;26.27;;;4.50;99.90;;;;;;5097289;28;20200;-76
2022/03/31 06:09:59;;;;;;;40.80;27.30;;;4.60;99.90;;;;;;5096642;28;20229;-76
2022/03/31 06:12:25;;;;;;;39.83;26.20;;;4.70;99.90;;;;;;5096560;28;20257;-76
2022/03/31 06:14:53;;;;;;;36.10;26.77;;;4.70;99.90;;;;;;5096770;28;20226;-76
2022/03/31 06:17:20;;;;;;;36.40;26.20;;;4.70;99.90;;;;;;5096376;28;20201;-75
2022/03/31 06:19:47;;;;;;;36.97;25.80;;;4.80;99.90;;;;;;5096197;28;20197;-76
2022/03/31 06:22:14;;;;;;;34.90;25.03;;;4.70;99.90;;;;;;5095777;28;20232;-77
2022/03/31 06:24:40;;;;;;;34.23;23.57;;;4.70;99.90;;;;;;5095963;28;20226;-76
2022/03/31 06:27:09;;;;;;;34.27;24.47;;;4.80;99.90;;;;;;5095712;28;20237;-76
2022/03/31 06:29:36;;;;;;;33.87;25.00;;;4.90;99.90;;;;;;5095899;28;20222;-76
2022/03/31 06:32:05;;;;;;;34.37;24.43;;;4.90;99.90;;;;;;5095893;28;20264;-76
2022/03/31 06:34:31;;;;;;;33.63;24.27;;;4.90;99.90;;;;;;5095663;28;20259;-76
2022/03/31 06:36:58;;;;;;;37.13;25.80;;;4.90;99.90;;;;;;5095605;28;20605;-77
2022/03/31 06:39:26;;;;;;;30.20;22.97;;;5.00;99.90;;;;;;5095525;28;20254;-76
2022/03/31 06:41:53;;;;;;;29.67;22.33;;;5.00;99.90;;;;;;5095166;28;20196;-76
2022/03/31 06:44:21;;;;;;;30.40;22.67;;;5.10;99.90;;;;;;5095101;28;20224;-76
2022/03/31 06:46:48;;;;;;;28.43;22.10;;;5.10;99.90;;;;;;5095107;28;20235;-76
2022/03/31 06:49:16;;;;;;;29.63;22.87;;;5.10;99.90;;;;;;5095105;28;20196;-76
2022/03/31 06:51:43;;;;;;;32.17;22.03;;;5.10;99.90;;;;;;5095139;28;20196;-77
2022/03/31 06:54:10;;;;;;;28.50;21.33;;;5.20;99.90;;;;;;5096189;28;20200;-76
2022/03/31 06:56:37;;;;;;;29.73;22.13;;;5.30;99.90;;;;;;5099739;28;20199;-78
2022/03/31 06:59:04;;;;;;;28.50;22.03;;;5.30;99.90;;;;;;5098576;28;20203;-76
2022/03/31 07:01:31;;;;;;;28.23;21.70;;;5.40;99.90;;;;;;5094994;28;20204;-77
2022/03/31 07:03:58;;;;;;;29.70;22.27;;;5.40;99.90;;;;;;5095233;28;20251;-77
2022/03/31 07:06:26;;;;;;;27.77;21.43;;;5.50;99.90;;;;;;5094656;28;20713;-77
2022/03/31 07:08:53;;;;;;;26.97;20.57;;;5.50;99.90;;;;;;5094403;28;20192;-77
2022/03/31 07:11:20;;;;;;;31.50;21.93;;;5.50;99.90;;;;;;5094122;28;20196;-77
2022/03/31 07:13:48;;;;;;;30.20;22.53;;;5.60;99.90;;;;;;5094669;28;20200;-78
2022/03/31 07:16:16;;;;;;;27.87;21.60;;;5.50;99.90;;;;;;5094478;28;20197;-76
2022/03/31 07:18:43;;;;;;;26.33;20.83;;;5.60;99.90;;;;;;5094448;28;20632;-76
2022/03/31 07:21:10;;;;;;;24.73;20.03;;;5.70;99.90;;;;;;5094223;28;20200;-76
2022/03/31 07:23:37;;;;;;;25.83;20.17;;;5.70;99.90;;;;;;5094134;28;20289;-76
2022/03/31 07:26:06;;;;;;;25.70;20.33;;;5.80;99.90;;;;;;5094283;28;20648;-75
2022/03/31 07:28:32;;;;;;;29.20;21.63;;;5.80;99.90;;;;;;5094028;28;20287;-76
2022/03/31 07:30:59;;;;;;;27.93;21.13;;;5.90;99.90;;;;;;5093989;28;20673;-76
2022/03/31 07:33:26;;;;;;;28.03;20.97;;;5.80;99.90;;;;;;5093985;28;20659;-76
2022/03/31 07:35:52;;;;;;;26.77;21.80;;;5.90;99.90;;;;;;5093916;28;20200;-76
2022/03/31 07:38:19;;;;;;;27.53;20.73;;;5.90;99.90;;;;;;5094060;28;20660;-76
2022/03/31 07:40:48;;;;;;;28.07;21.50;;;5.90;99.90;;;;;;5093912;28;20192;-76
2022/03/31 07:43:15;;;;;;;28.13;21.93;;;5.90;99.90;;;;;;5093874;28;20226;-76
2022/03/31 07:45:41;;;;;;;30.37;22.80;;;6.00;99.90;;;;;;5093675;28;20226;-76
2022/03/31 07:48:13;;;;;;;29.00;22.70;;;6.00;99.90;;;;;;5093851;28;20273;-76
2022/03/31 07:50:40;;;;;;;30.83;22.77;;;6.00;99.90;;;;;;5094258;28;20197;-76
2022/03/31 07:53:07;;;;;;;31.33;23.10;;;6.00;99.90;;;;;;5094234;28;20227;-76
2022/03/31 07:55:33;;;;;;;29.53;23.40;;;5.90;99.90;;;;;;5093832;28;20192;-77
2022/03/31 07:58:01;;;;;;;29.97;23.17;;;5.90;99.90;;;;;;5093831;28;20618;-77
2022/03/31 08:00:28;;;;;;;34.30;25.63;;;6.00;99.90;;;;;;5093670;28;20201;-77
2022/03/31 08:02:55;;;;;;;33.03;24.07;;;6.00;99.90;;;;;;5093470;28;20290;-77
2022/03/31 08:05:24;;;;;;;30.73;23.80;;;6.00;99.90;;;;;;5093713;28;20200;-76
2022/03/31 08:07:51;;;;;;;30.23;23.63;;;6.20;99.90;;;;;;5093391;28;20598;-76
2022/03/31 08:10:18;;;;;;;31.13;23.37;;;6.20;99.90;;;;;;5093444;28;20269;-76
2022/03/31 08:12:45;;;;;;;33.90;23.97;;;6.30;99.90;;;;;;5093448;28;20208;-76
2022/03/31 08:15:16;;;;;;;31.73;24.57;;;6.30;99.90;;;;;;5093421;28;20200;-76
2022/03/31 08:17:43;;;;;;;32.10;24.47;;;6.30;99.90;;;;;;5093566;28;20203;-76
2022/03/31 08:20:11;;;;;;;31.00;24.97;;;6.30;99.90;;;;;;5093535;28;20200;-76
2022/03/31 08:22:39;;;;;;;34.63;25.10;;;6.30;99.90;;;;;;5092310;28;20220;-76
2022/03/31 08:25:07;;;;;;;31.37;24.30;;;6.40;99.90;;;;;;5093358;28;20207;-76
2022/03/31 08:27:35;;;;;;;34.27;26.00;;;6.50;99.90;;;;;;5093203;28;20200;-76
2022/03/31 08:30:02;;;;;;;31.87;24.83;;;6.60;99.90;;;;;;5093130;28;20713;-76
2022/03/31 08:32:34;;;;;;;31.77;25.03;;;6.60;99.90;;;;;;5093373;28;20200;-76
2022/03/31 08:35:01;;;;;;;32.97;24.57;;;6.60;99.90;;;;;;5093276;28;20199;-76
2022/03/31 08:37:28;;;;;;;36.00;25.70;;;6.60;99.90;;;;;;5093230;28;20269;-76
2022/03/31 08:39:55;;;;;;;34.27;26.27;;;6.70;99.90;;;;;;5093035;28;20779;-76
2022/03/31 08:42:21;;;;;;;34.07;26.53;;;6.80;99.90;;;;;;5092977;28;20227;-76
2022/03/31 08:44:51;;;;;;;32.13;25.40;;;6.80;99.90;;;;;;5092912;28;20232;-76
2022/03/31 08:47:18;;;;;;;32.37;25.57;;;6.90;99.90;;;;;;5092957;28;20659;-76
2022/03/31 08:49:47;;;;;;;30.57;24.30;;;7.10;99.90;;;;;;5092901;28;20666;-76
2022/03/31 08:52:14;;;;;;;30.20;24.77;;;7.20;99.90;;;;;;5092786;28;20192;-76
2022/03/31 08:54:41;;;;;;;29.63;24.20;;;7.20;99.90;;;;;;5092708;28;20659;-76
2022/03/31 08:57:08;;;;;;;27.10;23.33;;;7.40;99.90;;;;;;5092723;28;20196;-76
2022/03/31 08:59:35;;;;;;;26.97;21.97;;;7.50;99.90;;;;;;5093342;28;20196;-76
2022/03/31 09:02:01;;;;;;;31.03;24.30;;;7.80;99.90;;;;;;5092825;28;20559;-76
2022/03/31 09:04:28;;;;;;;29.60;23.33;;;8.20;99.90;;;;;;5092859;28;20263;-76
2022/03/31 09:07:07;;;;;;;26.13;21.50;;;8.30;99.90;;;;;;5092562;28;20246;-77
2022/03/31 09:09:45;;;;;;;24.13;21.50;;;8.40;99.90;;;;;;5092689;28;20655;-76
2022/03/31 09:12:12;;;;;;;27.73;23.17;;;8.50;99.90;;;;;;5092953;28;20200;-76
2022/03/31 09:14:38;;;;;;;25.10;21.90;;;8.50;99.90;;;;;;5092862;28;20192;-76
2022/03/31 09:17:12;;;;;;;27.23;22.67;;;8.40;99.90;;;;;;5092726;28;20200;-76
2022/03/31 09:19:39;;;;;;;24.90;21.67;;;8.30;99.90;;;;;;5092684;28;20196;-76
2022/03/31 09:22:08;;;;;;;24.67;20.77;;;8.20;99.90;;;;;;5092381;28;20293;-76
2022/03/31 09:24:35;;;;;;;24.67;20.60;;;8.20;99.90;;;;;;5092711;28;20281;-76
2022/03/31 09:27:03;;;;;;;27.13;21.63;;;8.30;99.90;;;;;;5092617;28;20208;-76
2022/03/31 09:29:32;;;;;;;26.00;22.23;;;8.30;99.90;;;;;;5092541;28;20287;-76
2022/03/31 09:32:10;;;;;;;25.60;21.33;;;8.40;99.90;;;;;;5092527;28;20192;-74
2022/03/31 09:34:41;;;;;;;23.60;20.53;;;8.30;99.90;;;;;;5095366;28;20200;-77
2022/03/31 09:37:09;;;;;;;22.43;18.87;;;8.30;99.90;;;;;;5096459;28;20200;-75
2022/03/31 09:39:37;;;;;;;22.97;19.80;;;8.20;99.90;;;;;;5096355;28;20192;-77
2022/03/31 09:42:11;;;;;;;26.80;21.90;;;8.20;99.90;;;;;;5096202;28;20202;-76
2022/03/31 09:44:38;;;;;;;25.27;21.43;;;8.10;99.90;;;;;;5096316;28;20222;-76
2022/03/31 09:47:04;;;;;;;25.87;20.83;;;8.00;99.90;;;;;;5096139;28;20200;-77
2022/03/31 09:49:31;;;;;;;26.53;21.00;;;8.30;99.90;;;;;;5096366;28;20193;-77
2022/03/31 09:52:00;;;;;;;27.03;22.10;;;8.40;99.90;;;;;;5096271;28;20212;-77
2022/03/31 09:54:30;;;;;;;25.47;21.33;;;8.50;99.90;;;;;;5096122;28;20208;-76
2022/03/31 09:56:59;;;;;;;25.67;20.50;;;8.40;99.90;;;;;;5096155;28;20201;-77
2022/03/31 09:59:31;;;;;;;25.00;20.50;;;8.50;99.90;;;;;;5096060;28;20196;-77
2022/03/31 10:01:57;;;;;;;24.70;19.57;;;8.70;99.90;;;;;;5095953;28;20196;-77
2022/03/31 10:04:26;;;;;;;24.90;20.57;;;8.90;99.90;;;;;;5095977;28;20621;-77
2022/03/31 10:06:52;;;;;;;24.70;19.70;;;9.00;99.90;;;;;;5095836;28;20254;-76
2022/03/31 10:09:20;;;;;;;23.60;19.90;;;8.80;99.90;;;;;;5095873;28;20193;-76
2022/03/31 10:11:56;;;;;;;25.50;20.13;;;8.90;99.90;;;;;;5095575;28;20652;-75
2022/03/31 10:14:30;;;;;;;21.83;18.97;;;9.00;99.90;;;;;;5095976;28;20210;-75
2022/03/31 10:16:58;;;;;;;21.33;19.03;;;8.90;99.90;;;;;;5095824;28;20196;-75
2022/03/31 10:19:29;;;;;;;21.80;18.50;;;8.90;99.90;;;;;;5095680;28;20222;-75
2022/03/31 10:22:01;;;;;;;24.00;20.17;;;9.00;99.90;;;;;;5095381;28;20200;-74
2022/03/31 10:24:42;;;;;;;21.60;18.53;;;9.00;99.90;;;;;;5095121;28;20231;-75
2022/03/31 10:27:14;;;;;;;22.97;19.67;;;9.10;99.90;;;;;;5095624;28;20644;-74
2022/03/31 10:29:42;;;;;;;21.77;19.37;;;9.20;99.90;;;;;;5095546;28;20201;-75
2022/03/31 10:32:17;;;;;;;21.90;19.53;;;9.10;99.90;;;;;;5095730;28;20204;-75
2022/03/31 10:34:48;;;;;;;24.83;22.07;;;9.00;99.90;;;;;;5095343;28;20192;-76
2022/03/31 10:37:17;;;;;;;25.67;21.77;;;9.00;99.90;;;;;;5095170;28;20201;-76
2022/03/31 10:39:55;;;;;;;23.37;20.20;;;8.80;99.90;;;;;;5095358;28;20284;-75
2022/03/31 10:42:24;;;;;;;24.47;21.43;;;8.70;99.90;;;;;;5095266;28;20203;-75
2022/03/31 10:45:02;;;;;;;26.23;21.17;;;8.90;99.90;;;;;;5094191;28;20319;-76
2022/03/31 10:47:32;;;;;;;27.90;23.93;;;9.00;99.90;;;;;;5094912;28;20245;-76
2022/03/31 10:49:59;;;;;;;22.40;19.80;;;9.20;99.90;;;;;;5095008;28;20204;-76
2022/03/31 10:52:27;;;;;;;22.80;19.23;;;9.30;99.90;;;;;;5094786;28;20635;-76
2022/03/31 10:55:05;;;;;;;20.73;18.43;;;9.20;99.90;;;;;;5094581;28;20662;-76
2022/03/31 10:57:42;;;;;;;20.73;17.90;;;9.20;99.90;;;;;;5094697;28;20567;-76
2022/03/31 11:00:10;;;;;;;22.47;18.07;;;9.40;99.90;;;;;;5094672;28;20207;-76
2022/03/31 11:02:40;;;;;;;21.90;19.37;;;9.20;99.90;;;;;;5094565;28;20201;-75
2022/03/31 11:05:08;;;;;;;25.00;21.67;;;9.20;99.90;;;;;;5094446;28;20695;-76
2022/03/31 11:07:35;;;;;;;24.23;20.63;;;9.10;99.90;;;;;;5094554;28;20250;-76
2022/03/31 11:10:03;;;;;;;23.67;20.43;;;9.20;99.90;;;;;;5094487;28;20226;-76
2022/03/31 11:12:31;;;;;;;22.73;20.20;;;9.20;99.90;;;;;;5094248;28;20717;-76
2022/03/31 11:15:01;;;;;;;25.57;21.20;;;9.10;99.90;;;;;;5094463;28;20206;-76
2022/03/31 11:17:28;;;;;;;24.33;20.67;;;9.00;99.90;;;;;;5094254;28;20196;-76
2022/03/31 11:19:55;;;;;;;23.93;20.37;;;9.00;99.90;;;;;;5094397;28;20220;-76
2022/03/31 11:22:23;;;;;;;23.00;19.83;;;9.00;99.90;;;;;;5094399;28;20489;-76
2022/03/31 11:24:51;;;;;;;23.67;20.77;;;8.90;99.90;;;;;;5094290;28;20221;-75
2022/03/31 11:27:30;;;;;;;23.33;20.00;;;8.90;99.90;;;;;;5094269;28;20204;-76
2022/03/31 11:29:59;;;;;;;23.33;20.20;;;8.80;99.90;;;;;;5094374;28;20204;-76
2022/03/31 11:32:36;;;;;;;23.27;19.23;;;9.00;99.90;;;;;;5094266;28;20196;-76
2022/03/31 11:35:04;;;;;;;22.87;19.03;;;9.00;99.90;;;;;;5094202;28;20575;-76
2022/03/31 11:37:30;;;;;;;21.93;19.43;;;8.70;99.90;;;;;;5094005;28;20192;-76
2022/03/31 11:39:57;;;;;;;22.10;19.07;;;8.70;99.90;;;;;;5094140;28;20230;-76
2022/03/31 11:42:24;;;;;;;23.43;19.10;;;8.70;99.90;;;;;;5093923;28;20262;-76
2022/03/31 11:44:50;;;;;;;24.80;20.10;;;9.00;99.90;;;;;;5093709;28;20751;-76
2022/03/31 11:47:24;;;;;;;21.40;19.00;;;9.10;99.90;;;;;;5093787;28;20192;-76
2022/03/31 11:49:59;;;;;;;24.67;20.23;;;9.20;99.90;;;;;;5093793;28;20678;-75
2022/03/31 11:52:30;;;;;;;21.30;18.17;;;9.40;99.90;;;;;;5093893;28;20200;-76
2022/03/31 11:54:59;;;;;;;22.07;19.00;;;9.60;99.90;;;;;;5093836;28;20192;-76
2022/03/31 11:57:27;;;;;;;22.57;18.97;;;9.20;99.90;;;;;;5093577;28;20223;-76
2022/03/31 11:59:54;;;;;;;22.67;19.07;;;8.80;99.90;;;;;;5093537;28;20206;-77
2022/03/31 12:02:22;;;;;;;27.37;19.43;;;8.80;99.90;;;;;;5093505;28;20200;-76
2022/03/31 12:04:50;;;;;;;29.00;19.50;;;9.00;99.90;;;;;;5093337;28;20224;-76
2022/03/31 12:07:19;;;;;;;22.07;18.57;;;8.80;99.90;;;;;;5093405;28;20652;-76
2022/03/31 12:09:46;;;;;;;21.93;19.40;;;8.70;99.90;;;;;;5093438;28;20512;-76
2022/03/31 12:12:14;;;;;;;24.87;18.73;;;9.00;99.90;;;;;;5093338;28;20658;-76
2022/03/31 12:14:52;;;;;;;24.03;18.50;;;9.00;99.90;;;;;;5093230;28;20602;-76
2022/03/31 12:17:20;;;;;;;27.23;18.87;;;9.20;99.90;;;;;;5093301;28;20716;-75
2022/03/31 12:19:48;;;;;;;29.43;18.67;;;9.50;99.90;;;;;;5093177;28;20578;-75
2022/03/31 12:22:15;;;;;;;24.33;18.13;;;9.70;99.90;;;;;;5093218;28;20231;-76
2022/03/31 12:24:49;;;;;;;21.00;17.57;;;9.80;99.90;;;;;;5093163;28;20227;-75
2022/03/31 12:27:18;;;;;;;24.37;18.17;;;9.70;99.90;;;;;;5093189;28;20226;-76
2022/03/31 12:29:46;;;;;;;24.43;19.03;;;9.50;99.90;;;;;;5092978;28;20655;-76
2022/03/31 12:32:13;;;;;;;21.70;17.27;;;9.60;99.90;;;;;;5093543;28;20254;-77
2022/03/31 12:34:53;;;;;;;20.63;17.93;;;9.50;99.90;;;;;;5093170;28;20257;-76
2022/03/31 12:37:30;;;;;;;20.80;18.60;;;9.70;99.90;;;;;;5093156;28;20196;-76
2022/03/31 12:39:58;;;;;;;21.90;17.90;;;9.70;99.90;;;;;;5092980;28;20195;-76
2022/03/31 12:42:25;;;;;;;19.17;17.17;;;10.00;99.90;;;;;;5092847;28;20647;-76